Latest Weather Observations for Fawkner Beacon

IDV60801

Issued at 8:02 am EDT Thursday 2 April 2015 (issued every 30 minutes, with the page automatically refreshed every 10 minutes)

About weather observations | Map of weather stations | Latest weather observations for VIC | Other Formats
Station Details ID: 086376 Name: FAWKNER BEACON Lat: -37.91 Lon: 144.93 Height: 17.0 m
Data from the previous 72 hours. | See also: Recent months for locations in Victoria
Date/Time
EDT
Temp
°C
App
Temp
°C
Dew
Point
Rel
Hum
%
Delta-T
°C
Wind Press
QNH
hPa
Press
MSL
hPa
Rain
since 9 am
mm
Dir
 
Spd
km/h
Gust
km/h
Spd
kts
Gust
kts
02/08:00am - - - - - SW 30 39 16 21 - - -
02/07:30am - - - - - WSW 35 44 19 24 - - -
02/07:00am - - - - - SW 37 44 20 24 - - -
02/06:30am - - - - - SW 43 50 23 27 - - -
02/06:00am - - - - - SW 41 50 22 27 - - -
02/05:30am - - - - - SW 33 43 18 23 - - -
02/05:00am - - - - - SW 37 44 20 24 - - -
02/04:30am - - - - - SW 32 41 17 22 - - -
02/04:00am - - - - - SW 26 39 14 21 - - -
02/03:30am - - - - - SW 43 48 23 26 - - -
02/03:00am - - - - - SW 46 54 25 29 - - -
02/02:30am - - - - - WSW 48 54 26 29 - - -
02/02:00am - - - - - SW 46 54 25 29 - - -
02/01:35am - - - - - WSW 35 54 19 29 - - -
02/01:30am - - - - - WSW 32 41 17 22 - - -
02/01:00am - - - - - WSW 35 44 19 24 - - -
02/12:30am - - - - - WSW 48 61 26 33 - - -
02/12:00am - - - - - WSW 48 61 26 33 - - -
 
Date/Time
EDT
Temp
°C
App
Temp
°C
Dew
Point
Rel
Hum
%
Delta-T
°C
Wind Press
QNH
hPa
Press
MSL
hPa
Rain
since 9 am
mm
Dir
 
Spd
km/h
Gust
km/h
Spd
kts
Gust
kts
01/11:52pm - - - - - WSW 46 61 25 33 - - -
01/11:30pm - - - - - WSW 35 41 19 22 - - -
01/11:00pm - - - - - SW 37 44 20 24 - - -
01/10:35pm - - - - - SW 41 59 22 32 - - -
01/10:30pm - - - - - SW 41 59 22 32 - - -
01/10:23pm - - - - - NW 28 50 15 27 - - -
01/10:22pm - - - - - NW 28 50 15 27 - - -
01/10:00pm - - - - - NNW 26 28 14 15 - - -
01/09:30pm - - - - - NNW 28 32 15 17 - - -
01/09:00pm - - - - - NNW 32 33 17 18 - - -
01/08:30pm - - - - - NNW 28 33 15 18 - - -
01/08:00pm - - - - - NNW 32 35 17 19 - - -
01/07:30pm - - - - - NNW 35 46 19 25 - - -
01/07:00pm - - - - - NNW 37 46 20 25 - - -
01/06:30pm - - - - - NNW 35 46 19 25 - - -
01/06:00pm - - - - - NW 30 39 16 21 - - -
01/05:30pm - - - - - NW 33 39 18 21 - - -
01/05:00pm - - - - - NNW 37 44 20 24 - - -
01/04:30pm - - - - - NNW 30 43 16 23 - - -
01/04:00pm - - - - - N 28 33 15 18 - - -
01/03:30pm - - - - - NW 33 43 18 23 - - -
01/03:00pm - - - - - NNW 44 57 24 31 - - -
01/02:36pm - - - - - NNW 39 57 21 31 - - -
01/02:30pm - - - - - NNW 43 57 23 31 - - -
01/02:00pm - - - - - N 33 43 18 23 - - -
01/01:30pm - - - - - N 39 46 21 25 - - -
01/01:00pm - - - - - N 39 50 21 27 - - -
01/12:30pm - - - - - N 32 39 17 21 - - -
01/12:00pm - - - - - N 26 33 14 18 - - -
01/11:30am - - - - - N 28 39 15 21 - - -
01/11:00am - - - - - N 30 35 16 19 - - -
01/10:30am - - - - - N 33 41 18 22 - - -
01/10:00am - - - - - N 39 48 21 26 - - -
01/09:30am - - - - - N 33 39 18 21 - - -
01/09:00am - - - - - N 30 33 16 18 - - -
01/08:30am - - - - - N 26 30 14 16 - - -
01/08:00am - - - - - N 24 26 13 14 - - -
01/07:30am - - - - - N 24 26 13 14 - - -
01/07:00am - - - - - N 22 26 12 14 - - -
01/06:30am - - - - - N 33 41 18 22 - - -
01/06:00am - - - - - N 20 24 11 13 - - -
01/05:30am - - - - - N 19 22 10 12 - - -
01/05:00am - - - - - N 15 17 8 9 - - -
01/04:30am - - - - - N 19 22 10 12 - - -
01/04:00am - - - - - N 17 20 9 11 - - -
01/03:30am - - - - - N 15 17 8 9 - - -
01/03:00am - - - - - N 11 15 6 8 - - -
01/02:30am - - - - - N 13 15 7 8 - - -
01/02:00am - - - - - N 11 15 6 8 - - -
01/01:30am - - - - - NNW 11 13 6 7 - - -
01/01:00am - - - - - NW 9 11 5 6 - - -
01/12:30am - - - - - CALM 0 0 0 0 - - -
01/12:00am - - - - - NE 2 6 1 3 - - -
 
Date/Time
EDT
Temp
°C
App
Temp
°C
Dew
Point
Rel
Hum
%
Delta-T
°C
Wind Press
QNH
hPa
Press
MSL
hPa
Rain
since 9 am
mm
Dir
 
Spd
km/h
Gust
km/h
Spd
kts
Gust
kts
31/11:30pm - - - - - NE 6 7 3 4 - - -
31/11:00pm - - - - - NE 9 11 5 6 - - -
31/10:30pm - - - - - E 6 7 3 4 - - -
31/10:00pm - - - - - E 7 11 4 6 - - -
31/09:30pm - - - - - ESE 11 13 6 7 - - -
31/09:00pm - - - - - SE 15 17 8 9 - - -
31/08:30pm - - - - - ESE 24 28 13 15 - - -
31/08:00pm - - - - - ESE 28 30 15 16 - - -
31/07:30pm - - - - - ESE 28 30 15 16 - - -
31/07:00pm - - - - - ESE 28 32 15 17 - - -
31/06:30pm - - - - - SSE 24 28 13 15 - - -
31/06:00pm - - - - - SSE 26 28 14 15 - - -
31/05:30pm - - - - - SSE 24 26 13 14 - - -
31/05:00pm - - - - - SSE 24 26 13 14 - - -
31/04:30pm - - - - - SSE 24 28 13 15 - - -
31/04:00pm - - - - - SSE 20 24 11 13 - - -
31/03:30pm - - - - - SSE 17 20 9 11 - - -
31/03:00pm - - - - - SSE 13 15 7 8 - - -
31/02:30pm - - - - - SSE 15 17 8 9 - - -
31/02:00pm - - - - - S 15 17 8 9 - - -
31/01:30pm - - - - - S 13 15 7 8 - - -
31/01:00pm - - - - - SSE 9 11 5 6 - - -
31/12:30pm - - - - - SSW 7 9 4 5 - - -
31/12:00pm - - - - - W 2 7 1 4 - - -
31/11:30am - - - - - NW 6 7 3 4 - - -
31/11:00am - - - - - W 4 7 2 4 - - -
31/10:30am - - - - - W 7 9 4 5 - - -
31/10:00am - - - - - WNW 7 11 4 6 - - -
31/09:30am - - - - - NW 9 11 5 6 - - -
31/09:00am - - - - - WNW 9 13 5 7 - - -
31/08:30am - - - - - W 6 7 3 4 - - -
31/08:00am - - - - - CALM 0 0 0 0 - - -
31/07:30am - - - - - WSW 9 11 5 6 - - -
31/07:00am - - - - - WSW 7 11 4 6 - - -
31/06:30am - - - - - WSW 7 9 4 5 - - -
31/06:00am - - - - - N 2 7 1 4 - - -
31/05:30am - - - - - NNE 6 7 3 4 - - -
31/05:00am - - - - - NNE 7 9 4 5 - - -
31/04:30am - - - - - NE 9 11 5 6 - - -
31/04:00am - - - - - E 9 11 5 6 - - -
31/03:30am - - - - - ESE 9 11 5 6 - - -
31/03:00am - - - - - ESE 9 13 5 7 - - -
31/02:30am - - - - - ESE 11 13 6 7 - - -
31/02:00am - - - - - E 9 13 5 7 - - -
31/01:30am - - - - - E 11 13 6 7 - - -
31/01:00am - - - - - E 13 15 7 8 - - -
31/12:30am - - - - - E 15 17 8 9 - - -
31/12:00am - - - - - E 13 17 7 9 - - -
 
Date/Time
EDT
Temp
°C
App
Temp
°C
Dew
Point
Rel
Hum
%
Delta-T
°C
Wind Press
QNH
hPa
Press
MSL
hPa
Rain
since 9 am
mm
Dir
 
Spd
km/h
Gust
km/h
Spd
kts
Gust
kts
30/11:30pm - - - - - E 11 13 6 7 - - -
30/11:00pm - - - - - E 11 13 6 7 - - -
30/10:30pm - - - - - E 13 15 7 8 - - -
30/10:00pm - - - - - ESE 15 20 8 11 - - -
30/09:30pm - - - - - ESE 19 22 10 12 - - -
30/09:00pm - - - - - SE 24 26 13 14 - - -
30/08:30pm - - - - - SE 22 26 12 14 - - -
30/08:00pm - - - - - ESE 24 26 13 14 - - -
30/07:30pm - - - - - SSE 22 24 12 13 - - -
30/07:00pm - - - - - SSE 22 24 12 13 - - -
30/06:30pm - - - - - SSE 20 22 11 12 - - -
30/06:00pm - - - - - SSE 20 24 11 13 - - -
30/05:30pm - - - - - SSE 20 24 11 13 - - -
30/05:00pm - - - - - SE 20 26 11 14 - - -
30/04:30pm - - - - - SE 20 24 11 13 - - -
30/04:00pm - - - - - ESE 20 26 11 14 - - -
30/03:30pm - - - - - ESE 15 17 8 9 - - -
30/03:00pm - - - - - ESE 15 17 8 9 - - -
30/02:30pm - - - - - SE 11 13 6 7 - - -
30/02:00pm - - - - - SSE 13 15 7 8 - - -
30/01:30pm - - - - - SSE 13 15 7 8 - - -
30/01:00pm - - - - - S 11 13 6 7 - - -
30/12:30pm - - - - - SW 7 11 4 6 - - -
30/12:00pm - - - - - CALM 0 0 0 0 - - -
30/11:30am - - - - - NW 6 7 3 4 - - -
30/11:00am - - - - - NW 7 9 4 5 - - -
30/10:30am - - - - - W 9 11 5 6 - - -
30/10:00am - - - - - NW 9 11 5 6 - - -
30/09:30am - - - - - NW 7 9 4 5 - - -
30/09:00am - - - - - WNW 4 7 2 4 - - -
30/08:30am - - - - - WSW 9 11 5 6 - - -

Other Formats:

Comma delimited format used in spreadsheet applications
http://www.bom.gov.au/fwo/IDV60801/IDV60801.95872.axf

JavaScript Object Notation format (JSON) in row-major order
http://www.bom.gov.au/fwo/IDV60801/IDV60801.95872.json